No particular awareness of the weather is required.    There are no Weather-warnings

My Other Sites:

SYKIA HOMEWEATHERSTATIONsikeaweather.alinos.eu

SYKIA METEOTEMPLATEsykiameteo.alinos.eu

alinos.eualinos.eu



Nearby METAR Reports

   
LGEL - Elefsis (hel-Afb, Greece
Distance from station: E 77 km
Updated: 05-12-2020 15:50
Partly Cloudy  
Partly Cloudy  
   Wind: SSW 11.1 km/h
Wind: SSW 11.1 km/h
Temperature: 18°C
Dew Point: 11°C
Humidity: 64%
Barometer: 1015 hPa
Clouds: Partly Cloudy
Visibility: More than 10 km
Cloud details: Partly Cloudy 2500 ft
LGEL 051350Z 20006KT 9999 SCT025 18/11 Q1015
LGRX - Araxos (civ/Afb), Greece
Distance from station: W 110 km
Updated: 05-12-2020 15:50
Partly Cloudy  
Partly Cloudy  
   Wind: NE 9.3 km/h
Wind: NE 9.3 km/h
Temperature: 18°C
Dew Point: 10°C
Humidity: 60%
Barometer: 1015 hPa
Clouds: Partly Cloudy
Visibility: More than 10 km
Cloud details: Few Clouds 2500 ft,
Partly Cloudy 6000 ft
LGRX 051350Z 04005KT 9999 FEW025 SCT060 18/10 Q1015
LGAV - Athens/Elef-Ven, Greece
Distance from station: E 113 km
Updated: 05-12-2020 15:50
Partly Cloudy  
Partly Cloudy  
   Wind: ENE 9.3 km/h
Wind: ENE 9.3 km/h
Temperature: 17°C
Dew Point: 13°C
Humidity: 77%
Barometer: 1016 hPa
Clouds: Partly Cloudy
Visibility: More than 10 km
Cloud details: Partly Cloudy 2000 ft
LGAV 051350Z 06005KT 9999 SCT020 17/13 Q1016 NOSIG
LGAD - Andravida (civ/A, Greece
Distance from station: W 124 km
Updated: 05-12-2020 15:50
Partly Cloudy  
Partly Cloudy  
   Wind: SSW 7.4 km/h
Wind: SSW 7.4 km/h
Temperature: 19°C
Dew Point: 10°C
Humidity: 56%
Barometer: 1015 hPa
Clouds: Partly Cloudy
Visibility: More than 10 km
Cloud details: Few Clouds 2500 ft,
Partly Cloudy 8000 ft
LGAD 051350Z 20004KT 9999 FEW025 SCT080 19/10 Q1015
LGKL - Kalamata (hel-Af, Greece
Distance from station: SSW 124 km
Updated: 05-12-2020 15:50
Few Clouds  
Few Clouds  
   Wind: Calm
Wind: Calm
Temperature: 18°C
Dew Point: 12°C
Humidity: 68%
Barometer: 1015 hPa
Clouds: Few Clouds
Visibility: More than 10 km
Cloud details: Few Clouds 2500 ft
LGKL 051350Z 00000KT 9999 FEW025 18/12 Q1015
LGBL - Nea Anchialos, Greece
Distance from station: N 129 km
Updated: 05-12-2020 15:50
Few Clouds  
Few Clouds  
   Wind: West 13 km/h
Wind: West 13 km/h
Temperature: 14°C
Dew Point: 11°C
Humidity: 82%
Barometer: 1017 hPa
Clouds: Few Clouds
Visibility: More than 10 km
Cloud details: Few Clouds 1500 ft
LGBL 051350Z 28007KT 9999 FEW015 14/11 Q1017

Script developed by  Saratoga-weather.org Adapted for the template by  Weerstation Leuven

You find our weather info also at:

European Weather Network

Weather Underground

AWEKAS

Citizen Weather Observer Program (CWOP)

UK Metoffice

Equipment we use:

Weather-station
Davis Wireless Vantage Pro2

Davis Wireless Vantage Pro2